Time;durP1;ratioP1;P1;durP2;ratioP2;P2;SDS_P1;SDS_P2;PMS_P1;PMS_P2;Temp;Humidity;BMP_temperature;BMP_pressure;BME280_temperature;BME280_humidity;BME280_pressure;Samples;Min_cycle;Max_cycle;Signal;HPM_P1;HPM_P2
2022/06/17 00:01:15;;;;;;;5.32;3.13;;;;;;;16.54;68.21;102120.44;4952813;28;20050;-72
2022/06/17 00:03:41;;;;;;;7.95;3.33;;;;;;;16.34;68.90;102111.25;4953130;28;20030;-72
2022/06/17 00:06:11;;;;;;;4.15;3.20;;;;;;;16.17;69.58;102117.47;4951440;28;20031;-72
2022/06/17 00:08:41;;;;;;;4.93;3.13;;;;;;;16.08;70.02;102122.66;4948527;28;20073;-72
2022/06/17 00:11:14;;;;;;;4.93;3.47;;;;;;;16.10;70.10;102118.09;4950762;28;20035;-72
2022/06/17 00:13:39;;;;;;;4.95;3.15;;;;;;;16.17;70.00;102117.47;4953244;28;20043;-72
2022/06/17 00:16:10;;;;;;;4.70;3.20;;;;;;;16.23;69.78;102122.03;4949538;28;20118;-72
2022/06/17 00:18:35;;;;;;;4.95;2.72;;;;;;;16.26;69.28;102113.88;4951551;28;20062;-72
2022/06/17 00:21:03;;;;;;;5.45;3.05;;;;;;;16.25;69.26;102112.22;4949155;28;20042;-72
2022/06/17 00:23:28;;;;;;;6.07;3.35;;;;;;;16.10;69.99;102110.25;4965204;28;20058;-72
2022/06/17 00:25:54;;;;;;;5.38;3.30;;;;;;;15.94;70.72;102112.84;4950500;28;20046;-72
2022/06/17 00:28:23;;;;;;;8.13;3.42;;;;;;;15.90;70.85;102120.19;4949202;28;20072;-72
2022/06/17 00:30:50;;;;;;;5.07;3.33;;;;;;;15.94;70.55;102121.50;4949235;28;20038;-72
2022/06/17 00:33:17;;;;;;;6.82;2.80;;;;;;;16.00;70.15;102114.81;4945852;28;20051;-72
2022/06/17 00:35:46;;;;;;;7.03;3.03;;;;;;;16.05;70.08;102109.91;4943937;28;20031;-72
2022/06/17 00:38:14;;;;;;;4.63;3.10;;;;;;;16.08;69.97;102114.81;4954388;28;20108;-72
2022/06/17 00:40:41;;;;;;;6.80;3.75;;;;;;;16.07;70.01;102117.63;4947227;29;20106;-72
2022/06/17 00:43:30;;;;;;;7.10;3.45;;;;;;;16.02;70.46;102112.84;4949345;28;20043;-72
2022/06/17 00:46:01;;;;;;;5.35;3.00;;;;;;;15.92;70.83;102107.75;4948527;28;20043;-72
2022/06/17 00:48:34;;;;;;;4.78;3.00;;;;;;;15.77;71.24;102102.31;4965870;28;20035;-72
2022/06/17 00:51:09;;;;;;;4.40;3.28;;;;;;;15.73;71.36;102110.63;4937566;29;20035;-72
2022/06/17 00:53:44;;;;;;;3.78;3.15;;;;;;;15.73;71.68;102114.06;4953874;28;20109;-72
2022/06/17 00:56:20;;;;;;;7.75;3.97;;;;;;;15.75;71.77;102113.94;4953577;28;20058;-72
2022/06/17 00:59:15;;;;;;;4.50;2.83;;;;;;;15.72;72.39;102115.00;4952205;28;20098;-72
2022/06/17 01:01:47;;;;;;;5.72;3.38;;;;;;;15.74;72.37;102123.53;4948191;28;20070;-72
2022/06/17 01:04:19;;;;;;;10.05;3.88;;;;;;;15.78;72.12;102124.06;4949743;28;20070;-72
2022/06/17 01:06:53;;;;;;;6.05;3.38;;;;;;;15.81;72.20;102125.56;4953788;28;20386;-72
2022/06/17 01:12:13;;;;;;;5.43;3.35;;;;;;;15.80;72.62;102129.94;4950807;28;20094;-72
2022/06/17 01:14:41;;;;;;;6.18;3.28;;;;;;;15.81;72.75;102128.16;4949017;28;20498;-72
2022/06/17 01:17:10;;;;;;;4.63;3.10;;;;;;;15.81;72.98;102131.59;4948917;28;20455;-71
2022/06/17 01:20:00;;;;;;;5.95;3.22;;;;;;;15.81;72.98;102123.75;4953870;28;20519;-72
2022/06/17 01:22:27;;;;;;;7.32;3.35;;;;;;;15.81;72.95;102120.31;4954079;28;20039;-72
2022/06/17 01:25:01;;;;;;;5.25;3.30;;;;;;;15.72;73.16;102125.47;4953305;28;20127;-72
2022/06/17 01:27:34;;;;;;;5.57;3.17;;;;;;;15.63;73.73;102129.03;4966072;28;20049;-72
2022/06/17 01:30:00;;;;;;;7.30;3.78;;;;;;;15.60;73.88;102129.34;4937085;28;20039;-72
2022/06/17 01:32:32;;;;;;;8.02;4.15;;;;;;;15.61;74.14;102135.41;4942832;28;20041;-72
2022/06/17 01:34:59;;;;;;;6.13;3.35;;;;;;;15.57;74.08;102130.47;4953565;28;20122;-72
2022/06/17 01:37:25;;;;;;;7.47;3.47;;;;;;;15.48;74.41;102131.44;4949812;28;20035;-72
2022/06/17 01:39:50;;;;;;;7.05;3.58;;;;;;;15.33;74.94;102133.81;4949380;28;20042;-72
2022/06/17 01:42:17;;;;;;;5.40;3.67;;;;;;;15.25;75.43;102133.75;4951008;28;20395;-72
2022/06/17 01:44:42;;;;;;;20.88;3.95;;;;;;;15.26;75.31;102137.19;4949714;28;20046;-72
2022/06/17 01:47:18;;;;;;;7.60;3.78;;;;;;;15.29;75.39;102137.69;4951410;28;20039;-72
2022/06/17 01:49:49;;;;;;;8.32;3.92;;;;;;;15.31;75.44;102125.31;4953440;28;20128;-72
2022/06/17 01:52:24;;;;;;;7.32;4.32;;;;;;;15.36;75.40;102124.81;4950883;28;20498;-72
2022/06/17 01:54:52;;;;;;;7.97;4.28;;;;;;;15.34;75.80;102118.94;4952243;28;20027;-71
2022/06/17 01:57:24;;;;;;;5.30;3.88;;;;;;;15.34;75.76;102126.78;4947340;28;20413;-72
2022/06/17 01:59:55;;;;;;;6.22;4.30;;;;;;;15.25;76.65;102132.94;4951253;28;20058;-72
2022/06/17 02:02:26;;;;;;;7.13;4.70;;;;;;;15.13;77.57;102127.16;4948218;28;20039;-72
2022/06/17 02:04:57;;;;;;;7.35;4.80;;;;;;;15.09;78.09;102134.47;4951573;28;20050;-72
2022/06/17 02:07:27;;;;;;;8.48;4.70;;;;;;;15.10;78.17;102137.91;4949057;28;20035;-72
2022/06/17 02:09:54;;;;;;;10.25;4.80;;;;;;;15.12;77.65;102138.56;4950243;28;20082;-72
2022/06/17 02:12:21;;;;;;;6.95;4.80;;;;;;;15.14;77.22;102141.84;4950220;28;20062;-72
2022/06/17 02:14:55;;;;;;;10.57;5.55;;;;;;;15.15;76.72;102140.88;4950605;28;20530;-72
2022/06/17 02:17:43;;;;;;;7.55;4.68;;;;;;;15.14;76.52;102134.84;4951869;28;20042;-72
2022/06/17 02:20:31;;;;;;;8.07;4.40;;;;;;;15.15;76.28;102139.06;4948704;28;20034;-72
2022/06/17 02:23:00;;;;;;;7.13;4.10;;;;;;;15.15;76.26;102133.03;4951073;28;20035;-72
2022/06/17 02:25:30;;;;;;;7.55;4.63;;;;;;;15.14;76.06;102136.59;4956962;28;20402;-72
2022/06/17 02:28:02;;;;;;;8.05;4.78;;;;;;;15.10;76.30;102128.25;4953205;28;20582;-72
2022/06/17 02:30:29;;;;;;;8.20;4.85;;;;;;;15.10;76.26;102135.28;4968724;28;20035;-72
2022/06/17 02:32:59;;;;;;;7.18;4.72;;;;;;;15.05;75.89;102135.75;4966903;28;20197;-72
2022/06/17 02:35:50;;;;;;;6.13;4.78;;;;;;;14.96;75.98;102134.88;4956225;28;20029;-72
2022/06/17 02:38:19;;;;;;;5.82;4.28;;;;;;;14.82;76.67;102130.19;4967670;28;20035;-72
2022/06/17 02:40:50;;;;;;;5.45;4.32;;;;;;;14.68;77.24;102138.56;4943643;28;20031;-72
2022/06/17 02:43:25;;;;;;;8.23;5.15;;;;;;;14.59;77.67;102145.50;4948994;28;20023;-72
2022/06/17 02:45:57;;;;;;;5.47;3.90;;;;;;;14.49;77.84;102149.97;4951601;28;20031;-72
2022/06/17 02:48:31;;;;;;;6.60;4.65;;;;;;;14.33;78.47;102151.41;4950395;28;20035;-72
2022/06/17 02:51:00;;;;;;;8.13;5.03;;;;;;;14.25;78.83;102145.31;4953961;28;20035;-71
2022/06/17 02:53:36;;;;;;;5.95;4.28;;;;;;;14.16;79.01;102141.78;4948099;28;20028;-72
2022/06/17 02:56:07;;;;;;;7.75;4.57;;;;;;;14.05;79.34;102142.81;4936092;28;20038;-72
2022/06/17 02:59:05;;;;;;;6.78;4.32;;;;;;;14.02;79.71;102138.72;4970891;28;20090;-72
2022/06/17 03:01:36;;;;;;;7.35;4.47;;;;;;;14.06;79.67;102148.88;4951419;28;20089;-72
2022/06/17 03:04:19;;;;;;;6.72;4.35;;;;;;;14.07;79.75;102146.13;4953302;28;20073;-72
2022/06/17 03:06:47;;;;;;;8.75;4.63;;;;;;;14.08;79.57;102149.53;4950529;28;20099;-72
2022/06/17 03:09:28;;;;;;;7.88;4.90;;;;;;;14.05;79.75;102149.81;4950127;28;20070;-72
2022/06/17 03:12:02;;;;;;;7.55;4.65;;;;;;;14.03;79.81;102147.34;4952022;28;20031;-71
2022/06/17 03:14:37;;;;;;;7.07;4.40;;;;;;;14.07;79.40;102151.34;4952850;28;20046;-72
2022/06/17 03:17:07;;;;;;;6.90;4.40;;;;;;;14.09;79.02;102143.34;4931050;28;20414;-72
2022/06/17 03:19:36;;;;;;;7.45;4.43;;;;;;;14.10;78.79;102148.41;4951935;28;20066;-72
2022/06/17 03:22:04;;;;;;;8.40;4.88;;;;;;;14.06;78.97;102136.63;4950731;28;20505;-71
2022/06/17 03:24:43;;;;;;;9.88;4.05;;;;;;;13.98;79.32;102139.97;4952603;28;20035;-71
2022/06/17 03:27:17;;;;;;;11.50;5.40;;;;;;;13.91;79.85;102145.91;4933691;28;20486;-72
2022/06/17 03:29:45;;;;;;;6.90;5.15;;;;;;;13.79;80.41;102147.91;4948189;28;20073;-72
2022/06/17 03:32:24;;;;;;;9.45;4.70;;;;;;;13.69;80.85;102137.50;4949294;28;20043;-72
2022/06/17 03:34:53;;;;;;;6.78;4.80;;;;;;;13.63;81.27;102133.69;4950066;28;20035;-72
2022/06/17 03:37:30;;;;;;;6.68;4.93;;;;;;;13.67;81.50;102138.63;4942290;28;20448;-71
2022/06/17 03:40:12;;;;;;;10.73;5.30;;;;;;;13.75;81.08;102136.09;4947432;28;20039;-71
2022/06/17 03:43:06;;;;;;;10.38;4.80;;;;;;;13.84;80.77;102143.06;4947536;28;20043;-72
2022/06/17 03:45:59;;;;;;;6.93;4.22;;;;;;;13.90;80.21;102149.47;4947628;28;20039;-71
2022/06/17 03:48:25;;;;;;;8.93;4.40;;;;;;;13.91;80.50;102153.75;4965752;28;20039;-72
2022/06/17 03:50:51;;;;;;;6.68;4.45;;;;;;;13.91;80.46;102145.91;4948637;28;20540;-72
2022/06/17 03:53:30;;;;;;;8.00;4.70;;;;;;;13.89;80.72;102143.44;4948901;28;20028;-72
2022/06/17 03:56:04;;;;;;;7.85;4.28;;;;;;;13.83;81.18;102150.06;4948362;28;20136;-71
2022/06/17 03:58:33;;;;;;;7.93;4.57;;;;;;;13.81;81.24;102151.19;4949045;28;20030;-71
2022/06/17 04:01:11;;;;;;;7.68;4.57;;;;;;;13.77;81.43;102161.06;4950139;28;20031;-72
2022/06/17 04:03:40;;;;;;;7.10;4.40;;;;;;;13.74;81.60;102152.72;4951951;28;20089;-72
2022/06/17 04:06:13;;;;;;;6.75;4.35;;;;;;;13.73;81.69;102164.09;4961118;28;20039;-71
2022/06/17 04:08:59;;;;;;;6.88;4.63;;;;;;;13.72;81.71;102163.28;4949110;28;20532;-72
2022/06/17 04:11:32;;;;;;;8.55;4.60;;;;;;;13.74;81.71;102161.34;4946593;28;20471;-71
2022/06/17 04:14:03;;;;;;;8.25;4.43;;;;;;;13.78;81.81;102167.09;4957978;28;20135;-72
2022/06/17 04:16:37;;;;;;;8.48;5.03;;;;;;;13.79;82.17;102166.16;4954360;28;20035;-71
2022/06/17 04:19:24;;;;;;;8.32;5.50;;;;;;;13.80;82.43;102165.97;4959973;28;20394;-71
2022/06/17 04:22:28;;;;;;;8.63;5.10;;;;;;;13.84;82.75;102169.13;4946995;28;20058;-72
2022/06/17 04:25:15;;;;;;;7.85;5.53;;;;;;;13.87;82.84;102168.84;4915389;28;20079;-71
2022/06/17 04:27:57;;;;;;;11.20;5.53;;;;;;;13.93;82.59;102165.66;4948507;28;20031;-72
2022/06/17 04:30:29;;;;;;;6.43;4.90;;;;;;;14.01;82.13;102162.31;4936901;28;20033;-72
2022/06/17 04:33:02;;;;;;;8.35;5.38;;;;;;;14.06;82.20;102164.50;4947997;28;20126;-72
2022/06/17 04:35:28;;;;;;;9.25;5.50;;;;;;;14.10;82.42;102165.84;4930856;29;20031;-72
2022/06/17 04:37:54;;;;;;;6.30;4.90;;;;;;;14.17;82.48;102166.91;4949768;28;20028;-72
2022/06/17 04:41:00;;;;;;;9.43;5.28;;;;;;;14.27;81.70;102174.69;4904331;29;20036;-72
2022/06/17 04:43:52;;;;;;;8.65;5.07;;;;;;;14.36;81.08;102168.59;4932804;29;20039;-72
2022/06/17 04:46:39;;;;;;;8.50;5.80;;;;;;;14.45;80.96;102172.06;4950738;28;20521;-72
2022/06/17 04:49:27;;;;;;;8.50;5.28;;;;;;;14.54;81.09;102173.78;4946097;28;20070;-72
2022/06/17 04:51:59;;;;;;;9.63;5.30;;;;;;;14.62;81.16;102178.31;4952794;28;20039;-72
2022/06/17 04:54:27;;;;;;;10.63;5.97;;;;;;;14.72;80.83;102179.06;4950688;28;20065;-72
2022/06/17 04:57:16;;;;;;;12.27;5.40;;;;;;;14.84;79.89;102167.41;4937679;29;20035;-72
2022/06/17 04:59:45;;;;;;;7.95;5.80;;;;;;;14.92;79.89;102172.72;4948805;28;20446;-72
2022/06/17 05:02:24;;;;;;;13.70;6.65;;;;;;;15.07;78.81;102164.31;4951001;28;20039;-72
2022/06/17 05:05:06;;;;;;;10.32;5.93;;;;;;;15.17;78.26;102172.88;4958464;28;20038;-72
2022/06/17 05:07:41;;;;;;;9.13;5.78;;;;;;;15.24;77.00;102160.00;4946690;28;20063;-72
2022/06/17 05:10:31;;;;;;;10.95;5.57;;;;;;;15.36;76.26;102162.22;4949248;28;20118;-72
2022/06/17 05:13:18;;;;;;;16.30;7.25;;;;;;;15.53;76.48;102167.56;4943765;28;20046;-72
2022/06/17 05:15:44;;;;;;;9.07;5.68;;;;;;;15.69;75.67;102161.56;4951242;28;20109;-72
2022/06/17 05:18:10;;;;;;;10.40;5.97;;;;;;;15.82;75.58;102155.94;4948886;28;20502;-72
2022/06/17 05:20:36;;;;;;;15.52;6.88;;;;;;;16.03;74.16;102160.75;4956565;28;20394;-72
2022/06/17 05:23:05;;;;;;;7.70;6.10;;;;;;;16.08;73.46;102161.91;4947906;28;20032;-72
2022/06/17 05:25:38;;;;;;;10.95;6.47;;;;;;;16.44;71.87;102151.19;4950180;28;20039;-71
2022/06/17 05:28:07;;;;;;;16.25;6.72;;;;;;;16.60;71.47;102147.78;4963740;28;20517;-71
2022/06/17 05:30:37;;;;;;;11.85;6.00;;;;;;;16.85;71.68;102145.19;4932269;28;20118;-71
2022/06/17 05:33:06;;;;;;;13.05;5.75;;;;;;;17.10;70.19;102138.94;4948915;28;20035;-72
2022/06/17 05:35:33;;;;;;;14.30;6.07;;;;;;;17.18;69.98;102138.09;4952006;28;20039;-72
2022/06/17 05:37:58;;;;;;;15.48;5.88;;;;;;;17.17;69.52;102143.50;4947225;28;20383;-72
2022/06/17 05:40:26;;;;;;;12.02;6.43;;;;;;;17.31;69.58;102150.69;4942577;28;20043;-71
2022/06/17 05:42:52;;;;;;;8.25;5.60;;;;;;;17.43;67.30;102149.34;4932828;29;20230;-71
2022/06/17 05:45:24;;;;;;;8.90;4.80;;;;;;;17.46;67.73;102145.53;4947805;28;20027;-71
2022/06/17 05:48:08;;;;;;;11.32;5.70;;;;;;;17.37;67.28;102138.72;4950004;28;20516;-71
2022/06/17 05:50:53;;;;;;;12.82;6.63;;;;;;;17.27;67.84;102150.22;4950589;28;20042;-70
2022/06/17 05:53:44;;;;;;;9.20;5.38;;;;;;;17.40;67.86;102149.66;4945424;28;20130;-71
2022/06/17 05:56:22;;;;;;;17.23;6.35;;;;;;;17.45;68.21;102149.16;4948509;28;20117;-71
2022/06/17 05:58:49;;;;;;;13.48;6.28;;;;;;;17.83;67.32;102146.72;4947955;28;20038;-71
2022/06/17 06:01:14;;;;;;;10.90;5.65;;;;;;;18.31;66.39;102141.38;4949445;28;20041;-71
2022/06/17 06:03:40;;;;;;;12.00;5.63;;;;;;;18.72;64.65;102128.75;4951995;28;20039;-71
2022/06/17 06:06:06;;;;;;;10.20;5.72;;;;;;;19.11;64.25;102119.06;4936293;28;20059;-71
2022/06/17 06:08:33;;;;;;;11.93;5.60;;;;;;;19.26;64.12;102112.78;4951323;28;20430;-71
2022/06/17 06:10:59;;;;;;;14.18;5.57;;;;;;;19.49;62.54;102111.88;4957284;28;20032;-71
2022/06/17 06:13:27;;;;;;;11.13;5.25;;;;;;;19.85;62.14;102121.63;4951608;28;20533;-71
2022/06/17 06:15:55;;;;;;;11.82;5.60;;;;;;;19.96;60.38;102139.56;4958400;28;20023;-71
2022/06/17 06:18:36;;;;;;;9.38;4.88;;;;;;;20.36;58.58;102133.88;4957300;28;20031;-70
2022/06/17 06:21:15;;;;;;;11.80;4.55;;;;;;;20.61;58.12;102116.72;4957593;28;20643;-71
2022/06/17 06:23:42;;;;;;;8.70;4.93;;;;;;;20.95;57.79;102116.97;4954073;28;20035;-71
2022/06/17 06:26:17;;;;;;;10.65;4.60;;;;;;;21.16;55.63;102113.44;4940413;28;20148;-71
2022/06/17 06:28:47;;;;;;;5.30;3.50;;;;;;;21.04;55.04;102115.81;4951022;28;20553;-71
2022/06/17 06:31:35;;;;;;;7.65;3.92;;;;;;;21.41;55.73;102126.94;4956691;28;20130;-71
2022/06/17 06:34:08;;;;;;;5.28;2.83;;;;;;;21.78;55.16;102120.41;4952424;28;20047;-71
2022/06/17 06:36:42;;;;;;;7.40;3.65;;;;;;;21.58;54.76;102122.16;4948460;28;20039;-71
2022/06/17 06:39:09;;;;;;;7.15;3.10;;;;;;;21.66;53.03;102118.53;4950997;28;20030;-71
2022/06/17 06:41:35;;;;;;;7.78;3.20;;;;;;;21.87;52.71;102125.50;4952337;28;20031;-70
2022/06/17 06:44:00;;;;;;;4.53;2.95;;;;;;;22.46;51.53;102130.09;4952675;28;20030;-71
2022/06/17 06:46:45;;;;;;;12.52;3.50;;;;;;;22.84;49.78;102108.28;4955428;28;20050;-71
2022/06/17 06:49:23;;;;;;;7.72;2.90;;;;;;;22.88;49.37;102108.69;4953995;28;20031;-71
2022/06/17 06:51:48;;;;;;;8.23;3.40;;;;;;;22.96;49.84;102110.31;4952644;28;20475;-71
2022/06/17 06:54:14;;;;;;;7.03;3.10;;;;;;;23.18;48.96;102106.41;4951356;28;20485;-71
2022/06/17 06:56:40;;;;;;;8.82;3.28;;;;;;;23.13;49.22;102099.13;4953579;28;20035;-71
2022/06/17 06:59:05;;;;;;;7.28;3.35;;;;;;;23.48;46.41;102101.41;4936542;29;20094;-71
2022/06/17 07:01:31;;;;;;;5.30;2.63;;;;;;;23.37;47.58;102109.19;4949934;28;20085;-71
2022/06/17 07:03:57;;;;;;;6.05;2.92;;;;;;;23.35;48.03;102113.91;4955555;28;20043;-71
2022/06/17 07:06:24;;;;;;;7.72;2.53;;;;;;;23.17;47.26;102120.69;4970210;28;20118;-72
2022/06/17 07:08:49;;;;;;;5.07;2.38;;;;;;;23.21;46.17;102121.06;4937978;28;20039;-71
2022/06/17 07:11:16;;;;;;;10.82;2.90;;;;;;;23.47;46.61;102126.25;4959367;28;20030;-71
2022/06/17 07:13:42;;;;;;;8.50;2.70;;;;;;;23.00;46.88;102120.28;4966429;28;20090;-71
2022/06/17 07:16:10;;;;;;;4.15;2.10;;;;;;;22.77;48.82;102114.63;4953244;28;20430;-70
2022/06/17 07:18:37;;;;;;;7.25;2.97;;;;;;;22.46;49.23;102114.25;4952681;28;20051;-71
2022/06/17 07:21:07;;;;;;;7.47;2.47;;;;;;;22.80;49.66;102112.38;4953965;28;20034;-71
2022/06/17 07:23:35;;;;;;;12.02;3.90;;;;;;;23.13;48.31;102119.44;4948633;28;20035;-72
2022/06/17 07:26:09;;;;;;;7.25;3.17;;;;;;;23.60;47.24;102121.91;4953888;28;20038;-71
2022/06/17 07:28:35;;;;;;;6.72;2.67;;;;;;;24.02;46.74;102119.69;4949450;28;20039;-72
2022/06/17 07:31:00;;;;;;;4.63;2.35;;;;;;;24.03;45.57;102124.75;4949814;28;20107;-71
2022/06/17 07:33:28;;;;;;;6.25;2.42;;;;;;;24.74;45.11;102122.00;4951887;29;20704;-71
2022/06/17 07:35:57;;;;;;;10.75;2.45;;;;;;;25.17;44.54;102121.94;4951478;28;20023;-71
2022/06/17 07:41:14;;;;;;;7.10;2.38;;;;;;;25.71;40.61;102122.13;4949454;28;20485;-72
2022/06/17 07:43:40;;;;;;;7.40;2.20;;;;;;;25.12;42.23;102120.97;4952075;28;20043;-71
2022/06/17 07:46:06;;;;;;;5.55;1.80;;;;;;;24.67;41.67;102128.16;4950252;28;20039;-71
2022/06/17 07:48:33;;;;;;;6.70;1.83;;;;;;;24.20;42.40;102119.75;4951517;28;20035;-71
2022/06/17 07:50:59;;;;;;;6.00;2.10;;;;;;;24.44;42.59;102119.97;4950758;28;20402;-71
2022/06/17 07:53:27;;;;;;;8.20;2.45;;;;;;;24.49;42.76;102115.66;4946794;28;20119;-71
2022/06/17 07:55:53;;;;;;;7.82;2.10;;;;;;;24.72;43.44;102127.50;4949183;28;20031;-71
2022/06/17 07:58:19;;;;;;;6.97;2.40;;;;;;;25.35;43.11;102120.31;4951386;28;20502;-71
2022/06/17 08:00:45;;;;;;;5.35;2.05;;;;;;;25.69;42.15;102116.19;4952784;28;20030;-71
2022/06/17 08:03:13;;;;;;;9.43;2.88;;;;;;;26.26;43.12;102114.97;4951075;28;20043;-72
2022/06/17 08:05:42;;;;;;;4.93;2.60;;;;;;;26.62;42.72;102111.34;4949639;28;20035;-72
2022/06/17 08:08:08;;;;;;;7.63;2.58;;;;;;;26.83;41.91;102106.47;4951317;28;20031;-71
2022/06/17 08:10:36;;;;;;;7.13;2.97;;;;;;;26.21;41.52;102111.16;4951168;28;20386;-71
2022/06/17 08:13:04;;;;;;;7.95;2.05;;;;;;;26.19;42.83;102105.25;4949214;28;20035;-72
2022/06/17 08:15:29;;;;;;;7.32;2.00;;;;;;;26.77;41.07;102100.22;4958502;28;20086;-71
2022/06/17 08:17:55;;;;;;;5.03;2.30;;;;;;;27.33;41.16;102098.72;4954333;28;20549;-71
2022/06/17 08:20:25;;;;;;;4.32;1.92;;;;;;;27.01;36.53;102100.97;4956714;28;20038;-71
2022/06/17 08:22:51;;;;;;;5.57;1.35;;;;;;;26.36;37.72;102108.06;4954557;28;20035;-71
2022/06/17 08:25:16;;;;;;;5.20;1.48;;;;;;;26.11;37.40;102104.81;4956161;28;20118;-72
2022/06/17 08:27:50;;;;;;;7.15;1.67;;;;;;;26.18;38.31;102098.34;4953051;28;20474;-71
2022/06/17 08:30:19;;;;;;;8.73;1.50;;;;;;;26.09;38.44;102093.56;4952550;28;20481;-71
2022/06/17 08:32:48;;;;;;;8.30;1.55;;;;;;;26.26;37.88;102077.75;4946125;28;20491;-71
2022/06/17 08:35:16;;;;;;;11.48;1.95;;;;;;;25.94;38.20;102075.44;4952738;28;20426;-71
2022/06/17 08:37:42;;;;;;;3.63;2.22;;;;;;;26.31;37.74;102078.69;4949303;28;20027;-71
2022/06/17 08:40:25;;;;;;;10.35;2.40;;;;;;;26.64;37.40;102085.31;4952034;28;20122;-71
2022/06/17 08:43:00;;;;;;;4.38;1.33;;;;;;;26.96;36.45;102075.06;4950378;28;20138;-71
2022/06/17 08:45:49;;;;;;;5.82;1.80;;;;;;;27.69;36.96;102082.56;4949777;28;20042;-71
2022/06/17 08:48:43;;;;;;;3.88;1.60;;;;;;;28.00;36.38;102083.91;4944340;28;20409;-71
2022/06/17 08:51:32;;;;;;;6.43;1.52;;;;;;;28.37;35.15;102071.91;4932403;28;20043;-71
2022/06/17 08:54:15;;;;;;;5.25;1.88;;;;;;;27.81;34.87;102070.00;4948919;28;20043;-71
2022/06/17 08:56:50;;;;;;;8.23;2.25;;;;;;;27.36;35.48;102070.81;4934186;29;20093;-71
2022/06/17 08:59:37;;;;;;;6.50;1.98;;;;;;;27.47;35.89;102063.81;4948750;28;20174;-71
2022/06/17 09:02:57;;;;;;;5.97;1.92;;;;;;;27.66;37.27;102067.88;4950138;28;20513;-71
2022/06/17 09:05:22;;;;;;;3.20;2.20;;;;;;;28.01;34.86;102066.06;4875742;29;20096;-72
2022/06/17 09:08:03;;;;;;;5.88;2.15;;;;;;;28.36;35.83;102071.13;4892392;29;20061;-71
2022/06/17 09:10:47;;;;;;;7.47;1.90;;;;;;;28.68;35.15;102075.84;4908199;29;20622;-71
2022/06/17 09:13:53;;;;;;;5.53;2.15;;;;;;;28.81;35.14;102077.34;4929020;29;20495;-71
2022/06/17 09:16:40;;;;;;;4.50;2.33;;;;;;;28.28;35.91;102071.53;4889951;29;20048;-71
2022/06/17 09:19:08;;;;;;;9.73;2.35;;;;;;;28.43;35.19;102073.63;4945903;28;20126;-72
2022/06/17 09:22:05;;;;;;;5.88;1.80;;;;;;;28.75;34.38;102062.34;4952780;28;20043;-71
2022/06/17 09:24:36;;;;;;;5.30;2.63;;;;;;;28.77;33.52;102062.91;4933372;28;20130;-72
2022/06/17 09:27:05;;;;;;;10.35;3.30;;;;;;;28.47;35.17;102059.53;4946985;28;20039;-71
2022/06/17 09:29:56;;;;;;;7.55;2.67;;;;;;;28.78;36.31;102057.28;4950513;28;20042;-72
2022/06/17 09:32:23;;;;;;;4.68;2.50;;;;;;;28.51;35.83;102065.19;4953906;28;20035;-72
2022/06/17 09:34:52;;;;;;;3.55;1.73;;;;;;;28.34;35.04;102060.69;4950465;28;20039;-72
2022/06/17 09:37:42;;;;;;;7.75;2.42;;;;;;;28.10;36.18;102059.28;4950287;28;20051;-72
2022/06/17 09:40:28;;;;;;;5.43;2.28;;;;;;;28.82;36.00;102054.94;4947967;28;20035;-71
2022/06/17 09:43:01;;;;;;;5.35;1.98;;;;;;;29.45;35.32;102047.38;4954170;29;20035;-72
2022/06/17 09:45:39;;;;;;;7.47;2.88;;;;;;;29.44;33.87;102035.88;4952031;28;20379;-72
2022/06/17 09:48:16;;;;;;;8.38;3.00;;;;;;;29.02;34.83;102041.03;4954508;28;20039;-72
2022/06/17 09:50:48;;;;;;;5.47;2.88;;;;;;;28.42;34.60;102048.00;4953702;28;20447;-71
2022/06/17 09:53:21;;;;;;;8.37;2.60;;;;;;;28.44;35.72;102041.34;4954343;28;20098;-71
2022/06/17 09:55:52;;;;;;;11.02;2.10;;;;;;;28.82;35.31;102046.94;4954500;28;20091;-71
2022/06/17 09:58:38;;;;;;;6.93;1.92;;;;;;;29.24;34.71;102047.16;4953769;28;20031;-72
2022/06/17 10:01:03;;;;;;;6.47;2.55;;;;;;;29.38;33.81;102047.56;4968054;28;20071;-72
2022/06/17 10:03:34;;;;;;;5.28;2.47;;;;;;;29.18;33.89;102045.50;4954140;28;20121;-71
2022/06/17 10:06:28;;;;;;;9.65;2.63;;;;;;;29.03;34.21;102040.78;4955476;28;20054;-71
2022/06/17 10:09:18;;;;;;;12.00;1.77;;;;;;;28.73;32.54;102044.69;4953119;28;20690;-73
2022/06/17 10:11:49;;;;;;;3.90;1.60;;;;;;;28.85;33.50;102044.56;4954823;28;20130;-72
2022/06/17 10:14:30;;;;;;;4.72;1.80;;;;;;;29.03;32.68;102045.31;4955390;28;20034;-72
2022/06/17 10:20:18;;;;;;;8.50;1.88;;;;;;;29.03;32.23;102043.44;4956968;28;20065;-71
2022/06/17 10:22:57;;;;;;;6.05;1.63;;;;;;;29.28;32.73;102047.47;4964179;28;20355;-71
2022/06/17 10:25:46;;;;;;;5.88;1.30;;;;;;;29.42;31.80;102042.50;4955727;28;20035;-71
2022/06/17 10:28:19;;;;;;;2.95;1.05;;;;;;;29.73;31.80;102032.09;4954062;28;20283;-71
2022/06/17 10:31:03;;;;;;;;;;;;;;;29.88;32.51;102026.91;4960026;28;20035;-72
2022/06/17 10:33:33;;;;;;;3.10;1.60;;;;;;;29.85;31.08;102032.75;4951404;28;19914;-71
2022/06/17 10:35:59;;;;;;;4.22;1.55;;;;;;;29.39;32.09;102032.34;4953898;28;20110;-72
2022/06/17 10:38:30;;;;;;;5.90;1.40;;;;;;;29.38;32.16;102041.41;4952331;28;20050;-71
2022/06/17 10:40:55;;;;;;;5.00;1.38;;;;;;;29.47;31.66;102058.59;4952383;28;20489;-71
2022/06/17 10:43:31;;;;;;;4.43;2.00;;;;;;;29.65;31.78;102052.88;4953885;28;20034;-72
2022/06/17 10:45:56;;;;;;;8.23;1.52;;;;;;;29.86;31.08;102042.38;4951721;28;20038;-72
2022/06/17 10:48:37;;;;;;;3.92;1.73;;;;;;;29.67;31.48;102036.59;4953149;28;20307;-71
2022/06/17 10:51:05;;;;;;;3.15;1.25;;;;;;;29.72;31.42;102028.59;4944671;28;20035;-72
2022/06/17 10:53:55;;;;;;;4.43;1.35;;;;;;;30.00;31.00;102021.34;4953416;28;20129;-71
2022/06/17 10:56:36;;;;;;;7.57;2.75;;;;;;;30.29;30.43;102019.13;4952944;28;20023;-72
2022/06/17 10:59:07;;;;;;;6.95;1.50;;;;;;;29.81;31.00;102015.63;4951325;28;20494;-72
2022/06/17 11:01:45;;;;;;;8.80;1.63;;;;;;;29.73;30.29;102018.75;4962083;28;20066;-71
2022/06/17 11:04:28;;;;;;;6.40;2.08;;;;;;;29.47;30.72;102016.66;4951900;28;20686;-72
2022/06/17 11:07:17;;;;;;;2.92;1.00;;;;;;;29.24;29.72;102009.78;4963073;28;20142;-72
2022/06/17 11:09:56;;;;;;;7.55;1.23;;;;;;;29.25;29.72;102011.41;4949856;28;20142;-71
2022/06/17 11:12:35;;;;;;;4.65;1.15;;;;;;;29.68;30.65;102000.78;4950526;29;20066;-72
2022/06/17 11:15:06;;;;;;;3.65;1.02;;;;;;;29.70;27.18;101998.66;4954135;28;20119;-72
2022/06/17 11:17:48;;;;;;;7.53;1.50;;;;;;;29.78;29.68;102000.91;4950929;28;20047;-72
2022/06/17 11:20:16;;;;;;;3.05;1.50;;;;;;;29.82;28.07;102004.69;4954815;28;20049;-72
2022/06/17 11:23:10;;;;;;;4.90;1.10;;;;;;;29.77;29.03;102001.16;4951526;28;20047;-72
2022/06/17 11:25:38;;;;;;;3.90;1.27;;;;;;;29.83;28.03;101992.09;4937965;28;20055;-72
2022/06/17 11:28:22;;;;;;;2.97;0.98;;;;;;;29.80;27.99;101997.97;4951396;28;20043;-72
2022/06/17 11:30:54;;;;;;;5.63;1.40;;;;;;;29.85;28.72;101988.09;4949438;28;20114;-72
2022/06/17 11:33:26;;;;;;;2.67;1.02;;;;;;;30.17;29.86;101989.09;4951919;28;20031;-73
2022/06/17 11:36:18;;;;;;;7.10;1.50;;;;;;;29.95;29.15;101982.03;4951954;28;20051;-72
2022/06/17 11:38:44;;;;;;;3.55;1.30;;;;;;;30.10;29.20;101975.94;4946706;28;20051;-72
2022/06/17 11:41:17;;;;;;;3.08;1.00;;;;;;;30.37;27.97;101967.03;4951535;28;20106;-72
2022/06/17 11:43:43;;;;;;;3.13;1.15;;;;;;;30.40;28.78;101972.66;4951701;28;20758;-72
2022/06/17 11:46:13;;;;;;;2.55;1.58;;;;;;;30.42;26.91;101964.38;4948887;28;20035;-72
2022/06/17 11:48:45;;;;;;;1.70;1.00;;;;;;;30.59;27.89;101964.97;4950043;28;20051;-72
2022/06/17 11:51:26;;;;;;;3.17;1.23;;;;;;;30.52;28.10;101951.03;4950630;28;20030;-71
2022/06/17 11:54:01;;;;;;;3.58;1.05;;;;;;;30.84;28.93;101950.84;4950205;28;20043;-72
2022/06/17 11:56:36;;;;;;;3.90;0.93;;;;;;;30.99;29.11;101936.69;4949642;28;20031;-71
2022/06/17 11:59:10;;;;;;;6.68;1.30;;;;;;;31.20;28.16;101940.19;4952734;28;20031;-72
2022/06/17 12:01:36;;;;;;;10.63;1.05;;;;;;;31.05;27.01;101946.34;4954523;28;20062;-72
2022/06/17 12:04:02;;;;;;;2.28;1.02;;;;;;;30.91;26.54;101939.09;4949440;28;20035;-71